Cross Hands, United Kingdom
Current Conditions -  °F | °C
As of 2:50 PM on Sunday 21 Dec 2014 (Local Time) from EGOP Reporting Station
Broken Clouds Broken Clouds  
Wind Chill: 52°   Ceiling: 500
Heat Index: 52°   Visibility: 5mi
Dew Point: 50°   Wind: 31mph
Humidity: 94%   Direction: 240°WSW
Pressure: 30.24"   Gusts: NA
Location:  51.79°N, 4.09°W
Report Text: EGOP 211450Z AUTO 24027KT 8000 // BKN005/// 11/10 Q1024
Loading
Personal Weather Stations






























Interactive Weather Map New forecast layout! Learn more

10-Day Weather Forecast

Advertisements
Track Severe Weather on mobile